sensor_id;sensor_type;location;lat;lon;timestamp;temperature;humidity
22544;DHT22;11438;52.044;8.716;2023-09-18T00:00:39;23.40;99.90
22544;DHT22;11438;52.044;8.716;2023-09-18T00:03:04;23.40;99.90
22544;DHT22;11438;52.044;8.716;2023-09-18T00:05:30;23.40;99.90
22544;DHT22;11438;52.044;8.716;2023-09-18T00:07:56;23.40;99.90
22544;DHT22;11438;52.044;8.716;2023-09-18T00:10:22;23.30;99.90
22544;DHT22;11438;52.044;8.716;2023-09-18T00:12:47;23.30;99.90
22544;DHT22;11438;52.044;8.716;2023-09-18T00:15:13;23.30;99.90
22544;DHT22;11438;52.044;8.716;2023-09-18T00:17:38;23.30;99.90
22544;DHT22;11438;52.044;8.716;2023-09-18T00:20:04;23.30;99.90
22544;DHT22;11438;52.044;8.716;2023-09-18T00:22:32;23.30;99.90
22544;DHT22;11438;52.044;8.716;2023-09-18T00:24:57;23.20;99.90
22544;DHT22;11438;52.044;8.716;2023-09-18T00:27:23;23.30;99.90
22544;DHT22;11438;52.044;8.716;2023-09-18T00:29:48;23.20;99.90
22544;DHT22;11438;52.044;8.716;2023-09-18T00:32:14;23.20;99.90
22544;DHT22;11438;52.044;8.716;2023-09-18T00:34:40;23.20;99.90
22544;DHT22;11438;52.044;8.716;2023-09-18T00:37:05;23.20;99.90
22544;DHT22;11438;52.044;8.716;2023-09-18T00:39:31;23.20;99.90
22544;DHT22;11438;52.044;8.716;2023-09-18T00:41:56;23.20;99.90
22544;DHT22;11438;52.044;8.716;2023-09-18T00:44:22;23.20;99.90
22544;DHT22;11438;52.044;8.716;2023-09-18T00:46:49;23.20;99.90
22544;DHT22;11438;52.044;8.716;2023-09-18T00:49:16;23.10;99.90
22544;DHT22;11438;52.044;8.716;2023-09-18T00:51:43;23.10;99.90
22544;DHT22;11438;52.044;8.716;2023-09-18T00:54:09;23.20;99.90
22544;DHT22;11438;52.044;8.716;2023-09-18T00:56:35;23.10;99.90
22544;DHT22;11438;52.044;8.716;2023-09-18T00:59:01;23.10;99.90
22544;DHT22;11438;52.044;8.716;2023-09-18T01:01:28;23.10;99.90
22544;DHT22;11438;52.044;8.716;2023-09-18T01:03:56;23.10;99.90
22544;DHT22;11438;52.044;8.716;2023-09-18T01:06:24;23.10;99.90
22544;DHT22;11438;52.044;8.716;2023-09-18T01:08:50;23.10;99.90
22544;DHT22;11438;52.044;8.716;2023-09-18T01:11:49;23.10;99.90
22544;DHT22;11438;52.044;8.716;2023-09-18T01:17:00;23.10;99.90
22544;DHT22;11438;52.044;8.716;2023-09-18T01:19:39;23.00;99.90
22544;DHT22;11438;52.044;8.716;2023-09-18T01:22:06;23.00;99.90
22544;DHT22;11438;52.044;8.716;2023-09-18T01:24:36;23.00;99.90
22544;DHT22;11438;52.044;8.716;2023-09-18T01:27:02;23.00;99.90
22544;DHT22;11438;52.044;8.716;2023-09-18T01:29:31;23.00;99.90
22544;DHT22;11438;52.044;8.716;2023-09-18T01:31:57;23.00;99.90
22544;DHT22;11438;52.044;8.716;2023-09-18T01:34:28;23.00;99.90
22544;DHT22;11438;52.044;8.716;2023-09-18T01:36:55;23.00;99.90
22544;DHT22;11438;52.044;8.716;2023-09-18T01:39:22;23.00;99.90
22544;DHT22;11438;52.044;8.716;2023-09-18T01:41:49;23.00;99.90
22544;DHT22;11438;52.044;8.716;2023-09-18T01:44:15;22.90;99.90
22544;DHT22;11438;52.044;8.716;2023-09-18T01:46:42;22.90;99.90
22544;DHT22;11438;52.044;8.716;2023-09-18T01:49:08;22.90;99.90
22544;DHT22;11438;52.044;8.716;2023-09-18T01:51:33;22.90;99.90
22544;DHT22;11438;52.044;8.716;2023-09-18T01:54:00;22.90;99.90
22544;DHT22;11438;52.044;8.716;2023-09-18T01:56:25;22.90;99.90
22544;DHT22;11438;52.044;8.716;2023-09-18T01:58:51;22.90;99.90
22544;DHT22;11438;52.044;8.716;2023-09-18T02:01:16;22.90;99.90
22544;DHT22;11438;52.044;8.716;2023-09-18T02:03:42;22.90;99.90
22544;DHT22;11438;52.044;8.716;2023-09-18T02:06:08;22.90;99.90
22544;DHT22;11438;52.044;8.716;2023-09-18T02:08:36;22.90;99.90
22544;DHT22;11438;52.044;8.716;2023-09-18T02:11:02;22.90;99.90
22544;DHT22;11438;52.044;8.716;2023-09-18T02:13:30;22.80;99.90
22544;DHT22;11438;52.044;8.716;2023-09-18T02:15:56;22.80;99.90
22544;DHT22;11438;52.044;8.716;2023-09-18T02:18:21;22.80;99.90
22544;DHT22;11438;52.044;8.716;2023-09-18T02:20:47;22.90;99.90
22544;DHT22;11438;52.044;8.716;2023-09-18T02:23:15;22.90;99.90
22544;DHT22;11438;52.044;8.716;2023-09-18T02:25:40;22.80;99.90
22544;DHT22;11438;52.044;8.716;2023-09-18T02:28:07;22.80;99.90
22544;DHT22;11438;52.044;8.716;2023-09-18T02:30:32;22.80;99.90
22544;DHT22;11438;52.044;8.716;2023-09-18T02:32:58;22.80;99.90
22544;DHT22;11438;52.044;8.716;2023-09-18T02:35:25;22.80;99.90
22544;DHT22;11438;52.044;8.716;2023-09-18T02:37:50;22.80;99.90
22544;DHT22;11438;52.044;8.716;2023-09-18T02:40:16;22.80;99.90
22544;DHT22;11438;52.044;8.716;2023-09-18T02:42:41;22.80;99.90
22544;DHT22;11438;52.044;8.716;2023-09-18T02:45:07;22.80;99.90
22544;DHT22;11438;52.044;8.716;2023-09-18T02:47:34;22.80;99.90
22544;DHT22;11438;52.044;8.716;2023-09-18T02:49:59;22.80;99.90
22544;DHT22;11438;52.044;8.716;2023-09-18T02:52:25;22.80;99.90
22544;DHT22;11438;52.044;8.716;2023-09-18T02:54:50;22.80;99.90
22544;DHT22;11438;52.044;8.716;2023-09-18T02:57:16;22.80;99.90
22544;DHT22;11438;52.044;8.716;2023-09-18T02:59:41;22.80;99.90
22544;DHT22;11438;52.044;8.716;2023-09-18T03:02:07;22.80;99.90
22544;DHT22;11438;52.044;8.716;2023-09-18T03:04:32;22.80;99.90
22544;DHT22;11438;52.044;8.716;2023-09-18T03:06:58;22.80;99.90
22544;DHT22;11438;52.044;8.716;2023-09-18T03:09:23;22.80;99.90
22544;DHT22;11438;52.044;8.716;2023-09-18T03:11:49;22.80;99.90
22544;DHT22;11438;52.044;8.716;2023-09-18T03:14:14;22.80;99.90
22544;DHT22;11438;52.044;8.716;2023-09-18T03:16:40;22.80;99.90
22544;DHT22;11438;52.044;8.716;2023-09-18T03:19:05;22.80;99.90
22544;DHT22;11438;52.044;8.716;2023-09-18T03:21:31;22.70;99.90
22544;DHT22;11438;52.044;8.716;2023-09-18T03:23:59;22.70;99.90
22544;DHT22;11438;52.044;8.716;2023-09-18T03:26:24;22.70;99.90
22544;DHT22;11438;52.044;8.716;2023-09-18T03:28:50;22.70;99.90
22544;DHT22;11438;52.044;8.716;2023-09-18T03:31:15;22.70;99.90
22544;DHT22;11438;52.044;8.716;2023-09-18T03:33:41;22.70;99.90
22544;DHT22;11438;52.044;8.716;2023-09-18T03:36:06;22.70;99.90
22544;DHT22;11438;52.044;8.716;2023-09-18T03:38:33;22.70;99.90
22544;DHT22;11438;52.044;8.716;2023-09-18T03:41:00;22.70;99.90
22544;DHT22;11438;52.044;8.716;2023-09-18T03:43:26;22.70;99.90
22544;DHT22;11438;52.044;8.716;2023-09-18T03:45:52;22.70;99.90
22544;DHT22;11438;52.044;8.716;2023-09-18T03:48:17;22.70;99.90
22544;DHT22;11438;52.044;8.716;2023-09-18T03:50:43;22.70;99.90
22544;DHT22;11438;52.044;8.716;2023-09-18T03:53:09;22.70;99.90
22544;DHT22;11438;52.044;8.716;2023-09-18T03:55:35;22.80;99.90
22544;DHT22;11438;52.044;8.716;2023-09-18T03:58:00;22.80;99.90
22544;DHT22;11438;52.044;8.716;2023-09-18T04:00:26;22.80;99.90
22544;DHT22;11438;52.044;8.716;2023-09-18T04:02:51;22.80;99.90
22544;DHT22;11438;52.044;8.716;2023-09-18T04:05:17;22.80;99.90
22544;DHT22;11438;52.044;8.716;2023-09-18T04:07:42;22.80;99.90
22544;DHT22;11438;52.044;8.716;2023-09-18T04:10:12;22.80;99.90
22544;DHT22;11438;52.044;8.716;2023-09-18T04:12:43;22.80;99.90
22544;DHT22;11438;52.044;8.716;2023-09-18T04:15:13;22.90;99.90
22544;DHT22;11438;52.044;8.716;2023-09-18T04:17:39;22.90;99.90
22544;DHT22;11438;52.044;8.716;2023-09-18T04:20:05;22.90;99.90
22544;DHT22;11438;52.044;8.716;2023-09-18T04:22:31;22.90;99.90
22544;DHT22;11438;52.044;8.716;2023-09-18T04:24:57;22.90;99.90
22544;DHT22;11438;52.044;8.716;2023-09-18T04:27:22;22.90;99.90
22544;DHT22;11438;52.044;8.716;2023-09-18T04:29:47;22.90;99.90
22544;DHT22;11438;52.044;8.716;2023-09-18T04:32:13;22.90;99.90
22544;DHT22;11438;52.044;8.716;2023-09-18T04:34:38;22.90;99.90
22544;DHT22;11438;52.044;8.716;2023-09-18T04:37:04;23.00;99.90
22544;DHT22;11438;52.044;8.716;2023-09-18T04:39:30;23.00;99.90
22544;DHT22;11438;52.044;8.716;2023-09-18T04:41:55;23.00;99.90
22544;DHT22;11438;52.044;8.716;2023-09-18T04:44:21;23.00;99.90
22544;DHT22;11438;52.044;8.716;2023-09-18T04:46:46;23.00;99.90
22544;DHT22;11438;52.044;8.716;2023-09-18T04:49:12;23.00;99.90
22544;DHT22;11438;52.044;8.716;2023-09-18T04:51:38;23.00;99.90
22544;DHT22;11438;52.044;8.716;2023-09-18T04:54:05;23.00;99.90
22544;DHT22;11438;52.044;8.716;2023-09-18T04:56:30;23.00;99.90
22544;DHT22;11438;52.044;8.716;2023-09-18T04:58:56;23.00;99.90
22544;DHT22;11438;52.044;8.716;2023-09-18T05:01:23;23.00;99.90
22544;DHT22;11438;52.044;8.716;2023-09-18T05:03:50;23.00;99.90
22544;DHT22;11438;52.044;8.716;2023-09-18T05:06:16;23.00;99.90
22544;DHT22;11438;52.044;8.716;2023-09-18T05:08:43;23.00;99.90
22544;DHT22;11438;52.044;8.716;2023-09-18T05:11:09;23.00;99.90
22544;DHT22;11438;52.044;8.716;2023-09-18T05:13:34;23.00;99.90
22544;DHT22;11438;52.044;8.716;2023-09-18T05:16:00;23.00;99.90
22544;DHT22;11438;52.044;8.716;2023-09-18T05:18:26;23.10;99.90
22544;DHT22;11438;52.044;8.716;2023-09-18T05:20:52;23.10;99.90
22544;DHT22;11438;52.044;8.716;2023-09-18T05:23:17;23.10;99.90
22544;DHT22;11438;52.044;8.716;2023-09-18T05:25:43;23.10;99.90
22544;DHT22;11438;52.044;8.716;2023-09-18T05:28:09;23.10;99.90
22544;DHT22;11438;52.044;8.716;2023-09-18T05:30:35;23.10;99.90
22544;DHT22;11438;52.044;8.716;2023-09-18T05:33:04;23.10;99.90
22544;DHT22;11438;52.044;8.716;2023-09-18T05:35:48;23.10;99.90
22544;DHT22;11438;52.044;8.716;2023-09-18T05:38:14;23.10;99.90
22544;DHT22;11438;52.044;8.716;2023-09-18T05:40:40;23.20;99.90
22544;DHT22;11438;52.044;8.716;2023-09-18T05:43:06;23.20;99.90
22544;DHT22;11438;52.044;8.716;2023-09-18T05:45:33;23.20;99.90
22544;DHT22;11438;52.044;8.716;2023-09-18T05:47:59;23.20;99.90
22544;DHT22;11438;52.044;8.716;2023-09-18T05:50:30;23.30;99.90
22544;DHT22;11438;52.044;8.716;2023-09-18T05:52:58;23.20;99.90
22544;DHT22;11438;52.044;8.716;2023-09-18T05:55:29;23.30;99.90
22544;DHT22;11438;52.044;8.716;2023-09-18T05:57:55;23.30;99.90
22544;DHT22;11438;52.044;8.716;2023-09-18T06:00:21;23.30;99.90
22544;DHT22;11438;52.044;8.716;2023-09-18T06:02:47;23.30;99.90
22544;DHT22;11438;52.044;8.716;2023-09-18T06:05:13;23.30;99.90
22544;DHT22;11438;52.044;8.716;2023-09-18T06:07:41;23.30;99.90
22544;DHT22;11438;52.044;8.716;2023-09-18T06:10:07;23.30;99.90
22544;DHT22;11438;52.044;8.716;2023-09-18T06:12:33;23.30;99.90
22544;DHT22;11438;52.044;8.716;2023-09-18T06:14:58;23.40;99.90
22544;DHT22;11438;52.044;8.716;2023-09-18T06:17:24;23.40;99.90
22544;DHT22;11438;52.044;8.716;2023-09-18T06:19:49;23.40;99.90
22544;DHT22;11438;52.044;8.716;2023-09-18T06:22:15;23.40;99.90
22544;DHT22;11438;52.044;8.716;2023-09-18T06:24:41;23.40;99.90
22544;DHT22;11438;52.044;8.716;2023-09-18T06:27:06;23.40;99.90
22544;DHT22;11438;52.044;8.716;2023-09-18T06:29:32;23.40;99.90
22544;DHT22;11438;52.044;8.716;2023-09-18T06:31:58;23.40;99.90
22544;DHT22;11438;52.044;8.716;2023-09-18T06:34:25;23.40;99.90
22544;DHT22;11438;52.044;8.716;2023-09-18T06:36:50;23.50;99.90
22544;DHT22;11438;52.044;8.716;2023-09-18T06:39:16;23.50;99.90
22544;DHT22;11438;52.044;8.716;2023-09-18T06:41:42;23.50;99.90
22544;DHT22;11438;52.044;8.716;2023-09-18T06:44:08;23.50;99.90
22544;DHT22;11438;52.044;8.716;2023-09-18T06:46:33;23.50;99.90
22544;DHT22;11438;52.044;8.716;2023-09-18T06:48:59;23.60;99.90
22544;DHT22;11438;52.044;8.716;2023-09-18T06:51:27;23.50;99.90
22544;DHT22;11438;52.044;8.716;2023-09-18T06:53:55;23.60;99.90
22544;DHT22;11438;52.044;8.716;2023-09-18T06:56:25;23.60;99.90
22544;DHT22;11438;52.044;8.716;2023-09-18T06:58:51;23.60;99.90
22544;DHT22;11438;52.044;8.716;2023-09-18T07:01:18;23.70;99.90
22544;DHT22;11438;52.044;8.716;2023-09-18T07:03:47;23.70;99.90
22544;DHT22;11438;52.044;8.716;2023-09-18T07:06:14;23.70;99.90
22544;DHT22;11438;52.044;8.716;2023-09-18T07:08:47;23.80;99.90
22544;DHT22;11438;52.044;8.716;2023-09-18T07:11:16;23.80;99.90
22544;DHT22;11438;52.044;8.716;2023-09-18T07:13:42;23.80;99.90
22544;DHT22;11438;52.044;8.716;2023-09-18T07:16:09;23.90;99.90
22544;DHT22;11438;52.044;8.716;2023-09-18T07:18:34;23.90;99.90
22544;DHT22;11438;52.044;8.716;2023-09-18T07:21:00;24.00;99.90
22544;DHT22;11438;52.044;8.716;2023-09-18T07:23:25;24.00;99.90
22544;DHT22;11438;52.044;8.716;2023-09-18T07:25:51;24.00;99.90
22544;DHT22;11438;52.044;8.716;2023-09-18T07:28:17;24.10;99.90
22544;DHT22;11438;52.044;8.716;2023-09-18T07:30:44;24.20;99.90
22544;DHT22;11438;52.044;8.716;2023-09-18T07:33:10;24.20;99.90
22544;DHT22;11438;52.044;8.716;2023-09-18T07:35:36;24.30;99.90
22544;DHT22;11438;52.044;8.716;2023-09-18T07:38:03;24.30;99.90
22544;DHT22;11438;52.044;8.716;2023-09-18T07:40:29;24.40;99.90
22544;DHT22;11438;52.044;8.716;2023-09-18T07:42:54;24.50;99.90
22544;DHT22;11438;52.044;8.716;2023-09-18T07:45:20;24.50;99.90
22544;DHT22;11438;52.044;8.716;2023-09-18T07:47:45;24.60;99.90
22544;DHT22;11438;52.044;8.716;2023-09-18T07:50:11;24.60;99.90
22544;DHT22;11438;52.044;8.716;2023-09-18T07:52:36;24.60;99.90
22544;DHT22;11438;52.044;8.716;2023-09-18T07:55:02;24.80;99.90
22544;DHT22;11438;52.044;8.716;2023-09-18T07:57:28;24.80;99.90
22544;DHT22;11438;52.044;8.716;2023-09-18T07:59:55;24.90;99.90
22544;DHT22;11438;52.044;8.716;2023-09-18T08:02:21;25.00;99.90
22544;DHT22;11438;52.044;8.716;2023-09-18T08:04:47;25.00;99.90
22544;DHT22;11438;52.044;8.716;2023-09-18T08:07:13;25.10;99.90
22544;DHT22;11438;52.044;8.716;2023-09-18T08:09:39;25.10;99.90
22544;DHT22;11438;52.044;8.716;2023-09-18T08:12:05;25.20;99.90
22544;DHT22;11438;52.044;8.716;2023-09-18T08:14:31;25.20;99.90
22544;DHT22;11438;52.044;8.716;2023-09-18T08:16:57;25.20;99.90
22544;DHT22;11438;52.044;8.716;2023-09-18T08:19:24;25.20;99.90
22544;DHT22;11438;52.044;8.716;2023-09-18T08:21:53;25.30;99.90
22544;DHT22;11438;52.044;8.716;2023-09-18T08:24:19;25.30;99.60
22544;DHT22;11438;52.044;8.716;2023-09-18T08:26:44;25.40;99.60
22544;DHT22;11438;52.044;8.716;2023-09-18T08:29:10;25.40;99.50
22544;DHT22;11438;52.044;8.716;2023-09-18T08:31:35;25.40;99.40
22544;DHT22;11438;52.044;8.716;2023-09-18T08:34:01;25.40;99.30
22544;DHT22;11438;52.044;8.716;2023-09-18T08:36:26;25.40;99.20
22544;DHT22;11438;52.044;8.716;2023-09-18T08:38:54;25.40;99.20
22544;DHT22;11438;52.044;8.716;2023-09-18T08:41:20;25.40;99.20
22544;DHT22;11438;52.044;8.716;2023-09-18T08:43:49;25.40;99.30
22544;DHT22;11438;52.044;8.716;2023-09-18T08:46:15;25.40;99.00
22544;DHT22;11438;52.044;8.716;2023-09-18T08:48:41;25.40;99.00
22544;DHT22;11438;52.044;8.716;2023-09-18T08:51:08;25.40;98.80
22544;DHT22;11438;52.044;8.716;2023-09-18T08:53:35;25.40;98.80
22544;DHT22;11438;52.044;8.716;2023-09-18T08:56:02;25.40;98.90
22544;DHT22;11438;52.044;8.716;2023-09-18T08:58:36;25.40;98.90
22544;DHT22;11438;52.044;8.716;2023-09-18T09:01:05;25.40;98.80
22544;DHT22;11438;52.044;8.716;2023-09-18T09:03:31;25.40;98.80
22544;DHT22;11438;52.044;8.716;2023-09-18T09:05:59;25.40;98.70
22544;DHT22;11438;52.044;8.716;2023-09-18T09:08:27;25.40;98.50
22544;DHT22;11438;52.044;8.716;2023-09-18T09:10:53;25.40;98.40
22544;DHT22;11438;52.044;8.716;2023-09-18T09:13:18;25.40;98.70
22544;DHT22;11438;52.044;8.716;2023-09-18T09:15:50;25.40;98.70
22544;DHT22;11438;52.044;8.716;2023-09-18T09:18:19;25.40;98.70
22544;DHT22;11438;52.044;8.716;2023-09-18T09:20:58;25.40;98.50
22544;DHT22;11438;52.044;8.716;2023-09-18T09:23:26;25.50;98.60
22544;DHT22;11438;52.044;8.716;2023-09-18T09:25:52;25.40;98.60
22544;DHT22;11438;52.044;8.716;2023-09-18T09:28:29;25.50;99.20
22544;DHT22;11438;52.044;8.716;2023-09-18T09:31:01;25.50;98.80
22544;DHT22;11438;52.044;8.716;2023-09-18T09:33:30;25.60;98.70
22544;DHT22;11438;52.044;8.716;2023-09-18T09:35:56;25.60;98.80
22544;DHT22;11438;52.044;8.716;2023-09-18T09:38:29;25.60;98.70
22544;DHT22;11438;52.044;8.716;2023-09-18T09:40:57;25.60;98.80
22544;DHT22;11438;52.044;8.716;2023-09-18T09:43:25;25.70;98.40
22544;DHT22;11438;52.044;8.716;2023-09-18T09:45:57;25.70;98.60
22544;DHT22;11438;52.044;8.716;2023-09-18T09:48:23;25.80;98.30
22544;DHT22;11438;52.044;8.716;2023-09-18T09:50:50;25.80;98.10
22544;DHT22;11438;52.044;8.716;2023-09-18T09:53:16;25.90;98.00
22544;DHT22;11438;52.044;8.716;2023-09-18T09:55:41;25.90;97.90
22544;DHT22;11438;52.044;8.716;2023-09-18T09:58:09;26.00;97.90
22544;DHT22;11438;52.044;8.716;2023-09-18T10:00:51;26.00;97.80
22544;DHT22;11438;52.044;8.716;2023-09-18T10:03:19;26.00;97.80
22544;DHT22;11438;52.044;8.716;2023-09-18T10:05:47;26.00;97.70
22544;DHT22;11438;52.044;8.716;2023-09-18T10:08:21;26.00;98.00
22544;DHT22;11438;52.044;8.716;2023-09-18T10:10:55;26.00;97.50
22544;DHT22;11438;52.044;8.716;2023-09-18T10:13:41;26.10;97.60
22544;DHT22;11438;52.044;8.716;2023-09-18T10:16:07;26.10;97.60
22544;DHT22;11438;52.044;8.716;2023-09-18T10:24:12;26.10;97.50
22544;DHT22;11438;52.044;8.716;2023-09-18T10:26:48;26.10;97.70
22544;DHT22;11438;52.044;8.716;2023-09-18T10:29:16;26.10;97.30
22544;DHT22;11438;52.044;8.716;2023-09-18T10:31:44;26.10;97.50
22544;DHT22;11438;52.044;8.716;2023-09-18T10:34:12;26.20;97.30
22544;DHT22;11438;52.044;8.716;2023-09-18T10:36:41;26.20;97.20
22544;DHT22;11438;52.044;8.716;2023-09-18T10:39:09;26.30;97.40
22544;DHT22;11438;52.044;8.716;2023-09-18T10:41:38;26.30;97.10
22544;DHT22;11438;52.044;8.716;2023-09-18T10:44:04;26.30;97.20
22544;DHT22;11438;52.044;8.716;2023-09-18T10:46:30;26.30;97.00
22544;DHT22;11438;52.044;8.716;2023-09-18T10:48:56;26.40;97.20
22544;DHT22;11438;52.044;8.716;2023-09-18T10:51:23;26.40;97.10
22544;DHT22;11438;52.044;8.716;2023-09-18T10:53:49;26.40;96.90
22544;DHT22;11438;52.044;8.716;2023-09-18T10:56:19;26.50;96.90
22544;DHT22;11438;52.044;8.716;2023-09-18T10:58:45;26.50;96.90
22544;DHT22;11438;52.044;8.716;2023-09-18T11:01:14;26.50;96.60
22544;DHT22;11438;52.044;8.716;2023-09-18T11:03:40;26.50;96.30
22544;DHT22;11438;52.044;8.716;2023-09-18T11:06:15;26.60;96.30
22544;DHT22;11438;52.044;8.716;2023-09-18T11:08:48;26.60;96.50
22544;DHT22;11438;52.044;8.716;2023-09-18T11:11:17;26.60;96.20
22544;DHT22;11438;52.044;8.716;2023-09-18T11:13:47;26.70;96.20
22544;DHT22;11438;52.044;8.716;2023-09-18T11:19:16;26.70;96.10
22544;DHT22;11438;52.044;8.716;2023-09-18T11:21:39;26.70;96.00
22544;DHT22;11438;52.044;8.716;2023-09-18T11:24:06;26.80;96.00
22544;DHT22;11438;52.044;8.716;2023-09-18T11:26:39;26.70;96.00
22544;DHT22;11438;52.044;8.716;2023-09-18T11:29:13;26.70;95.80
22544;DHT22;11438;52.044;8.716;2023-09-18T11:31:52;26.80;95.70
22544;DHT22;11438;52.044;8.716;2023-09-18T11:34:32;26.70;95.60
22544;DHT22;11438;52.044;8.716;2023-09-18T11:37:00;26.80;95.70
22544;DHT22;11438;52.044;8.716;2023-09-18T11:39:39;26.80;96.00
22544;DHT22;11438;52.044;8.716;2023-09-18T11:42:13;26.80;96.00
22544;DHT22;11438;52.044;8.716;2023-09-18T11:44:40;26.80;95.60
22544;DHT22;11438;52.044;8.716;2023-09-18T11:47:17;26.80;95.90
22544;DHT22;11438;52.044;8.716;2023-09-18T11:52:28;26.80;95.60
22544;DHT22;11438;52.044;8.716;2023-09-18T11:54:57;26.90;95.50
22544;DHT22;11438;52.044;8.716;2023-09-18T11:57:22;27.00;96.00
22544;DHT22;11438;52.044;8.716;2023-09-18T11:59:48;27.00;95.90
22544;DHT22;11438;52.044;8.716;2023-09-18T12:02:28;27.00;95.90
22544;DHT22;11438;52.044;8.716;2023-09-18T12:05:14;27.00;95.40
22544;DHT22;11438;52.044;8.716;2023-09-18T12:07:43;27.10;95.40
22544;DHT22;11438;52.044;8.716;2023-09-18T12:10:11;27.10;95.30
22544;DHT22;11438;52.044;8.716;2023-09-18T12:12:37;27.10;95.30
22544;DHT22;11438;52.044;8.716;2023-09-18T12:15:03;27.10;95.00
22544;DHT22;11438;52.044;8.716;2023-09-18T12:17:29;27.10;95.00
22544;DHT22;11438;52.044;8.716;2023-09-18T12:19:55;27.10;95.10
22544;DHT22;11438;52.044;8.716;2023-09-18T12:22:29;27.10;95.10
22544;DHT22;11438;52.044;8.716;2023-09-18T12:25:13;27.10;94.70
22544;DHT22;11438;52.044;8.716;2023-09-18T12:27:40;27.10;94.90
22544;DHT22;11438;52.044;8.716;2023-09-18T12:30:07;27.10;94.70
22544;DHT22;11438;52.044;8.716;2023-09-18T12:32:36;27.10;94.70
22544;DHT22;11438;52.044;8.716;2023-09-18T12:35:03;27.10;94.40
22544;DHT22;11438;52.044;8.716;2023-09-18T12:37:32;27.10;94.60
22544;DHT22;11438;52.044;8.716;2023-09-18T12:39:57;27.10;94.70
22544;DHT22;11438;52.044;8.716;2023-09-18T12:42:23;27.10;94.90
22544;DHT22;11438;52.044;8.716;2023-09-18T12:44:49;27.20;94.90
22544;DHT22;11438;52.044;8.716;2023-09-18T12:47:16;27.20;94.80
22544;DHT22;11438;52.044;8.716;2023-09-18T12:49:41;27.20;95.00
22544;DHT22;11438;52.044;8.716;2023-09-18T12:52:07;27.20;94.50
22544;DHT22;11438;52.044;8.716;2023-09-18T12:54:43;27.30;94.30
22544;DHT22;11438;52.044;8.716;2023-09-18T12:57:12;27.30;94.40
22544;DHT22;11438;52.044;8.716;2023-09-18T12:59:40;27.30;94.30
22544;DHT22;11438;52.044;8.716;2023-09-18T13:02:06;27.30;94.60
22544;DHT22;11438;52.044;8.716;2023-09-18T13:04:36;27.40;94.80
22544;DHT22;11438;52.044;8.716;2023-09-18T13:07:12;27.50;94.70
22544;DHT22;11438;52.044;8.716;2023-09-18T13:09:41;27.50;94.60
22544;DHT22;11438;52.044;8.716;2023-09-18T13:12:08;27.60;94.90
22544;DHT22;11438;52.044;8.716;2023-09-18T13:14:59;27.60;94.50
22544;DHT22;11438;52.044;8.716;2023-09-18T13:20:11;27.70;94.20
22544;DHT22;11438;52.044;8.716;2023-09-18T13:22:37;27.70;94.40
22544;DHT22;11438;52.044;8.716;2023-09-18T13:25:02;27.70;94.30
22544;DHT22;11438;52.044;8.716;2023-09-18T13:27:28;27.70;94.30
22544;DHT22;11438;52.044;8.716;2023-09-18T13:29:53;27.70;94.30
22544;DHT22;11438;52.044;8.716;2023-09-18T13:32:20;27.70;94.30
22544;DHT22;11438;52.044;8.716;2023-09-18T13:34:46;27.70;94.40
22544;DHT22;11438;52.044;8.716;2023-09-18T13:37:12;27.70;94.40
22544;DHT22;11438;52.044;8.716;2023-09-18T13:39:39;27.80;93.90
22544;DHT22;11438;52.044;8.716;2023-09-18T13:42:05;27.80;94.10
22544;DHT22;11438;52.044;8.716;2023-09-18T13:44:30;27.80;94.10
22544;DHT22;11438;52.044;8.716;2023-09-18T13:46:56;27.80;93.90
22544;DHT22;11438;52.044;8.716;2023-09-18T13:49:21;27.80;94.00
22544;DHT22;11438;52.044;8.716;2023-09-18T13:51:48;27.90;93.40
22544;DHT22;11438;52.044;8.716;2023-09-18T13:54:15;27.90;93.10
22544;DHT22;11438;52.044;8.716;2023-09-18T13:56:42;27.90;93.00
22544;DHT22;11438;52.044;8.716;2023-09-18T13:59:08;27.90;93.50
22544;DHT22;11438;52.044;8.716;2023-09-18T14:01:35;27.90;93.50
22544;DHT22;11438;52.044;8.716;2023-09-18T14:04:01;28.00;93.80
22544;DHT22;11438;52.044;8.716;2023-09-18T14:06:26;27.90;93.20
22544;DHT22;11438;52.044;8.716;2023-09-18T14:08:52;28.00;93.00
22544;DHT22;11438;52.044;8.716;2023-09-18T14:11:17;28.00;92.90
22544;DHT22;11438;52.044;8.716;2023-09-18T14:13:44;28.00;92.80
22544;DHT22;11438;52.044;8.716;2023-09-18T14:16:09;28.00;92.80
22544;DHT22;11438;52.044;8.716;2023-09-18T14:18:36;28.00;92.60
22544;DHT22;11438;52.044;8.716;2023-09-18T14:21:01;28.10;92.20
22544;DHT22;11438;52.044;8.716;2023-09-18T14:23:27;28.00;91.80
22544;DHT22;11438;52.044;8.716;2023-09-18T14:25:54;28.10;91.80
22544;DHT22;11438;52.044;8.716;2023-09-18T14:28:20;28.10;91.70
22544;DHT22;11438;52.044;8.716;2023-09-18T14:30:46;28.00;91.70
22544;DHT22;11438;52.044;8.716;2023-09-18T14:33:11;28.00;91.90
22544;DHT22;11438;52.044;8.716;2023-09-18T14:35:39;28.00;91.80
22544;DHT22;11438;52.044;8.716;2023-09-18T14:38:05;28.00;91.90
22544;DHT22;11438;52.044;8.716;2023-09-18T14:40:32;28.00;91.50
22544;DHT22;11438;52.044;8.716;2023-09-18T14:42:57;27.90;91.40
22544;DHT22;11438;52.044;8.716;2023-09-18T14:45:23;27.90;91.60
22544;DHT22;11438;52.044;8.716;2023-09-18T14:47:50;27.90;91.70
22544;DHT22;11438;52.044;8.716;2023-09-18T14:50:15;27.80;91.70
22544;DHT22;11438;52.044;8.716;2023-09-18T14:52:41;27.80;91.60
22544;DHT22;11438;52.044;8.716;2023-09-18T14:55:07;27.80;91.40
22544;DHT22;11438;52.044;8.716;2023-09-18T14:57:35;27.80;91.40
22544;DHT22;11438;52.044;8.716;2023-09-18T15:00:00;27.70;91.70
22544;DHT22;11438;52.044;8.716;2023-09-18T15:02:26;27.80;91.90
22544;DHT22;11438;52.044;8.716;2023-09-18T15:04:55;27.70;92.30
22544;DHT22;11438;52.044;8.716;2023-09-18T15:07:20;27.70;92.20
22544;DHT22;11438;52.044;8.716;2023-09-18T15:09:46;27.70;92.60
22544;DHT22;11438;52.044;8.716;2023-09-18T15:12:11;27.60;92.40
22544;DHT22;11438;52.044;8.716;2023-09-18T15:14:37;27.50;90.70
22544;DHT22;11438;52.044;8.716;2023-09-18T15:17:03;27.40;91.20
22544;DHT22;11438;52.044;8.716;2023-09-18T15:19:29;27.20;91.30
22544;DHT22;11438;52.044;8.716;2023-09-18T15:21:55;27.10;91.90
22544;DHT22;11438;52.044;8.716;2023-09-18T15:24:23;27.00;92.20
22544;DHT22;11438;52.044;8.716;2023-09-18T15:26:48;26.90;93.00
22544;DHT22;11438;52.044;8.716;2023-09-18T15:29:14;26.80;93.00
22544;DHT22;11438;52.044;8.716;2023-09-18T15:31:41;26.70;93.60
22544;DHT22;11438;52.044;8.716;2023-09-18T15:34:07;26.70;94.30
22544;DHT22;11438;52.044;8.716;2023-09-18T15:36:33;26.70;94.60
22544;DHT22;11438;52.044;8.716;2023-09-18T15:38:59;26.80;94.60
22544;DHT22;11438;52.044;8.716;2023-09-18T15:41:25;27.00;95.20
22544;DHT22;11438;52.044;8.716;2023-09-18T15:43:50;27.10;95.20
22544;DHT22;11438;52.044;8.716;2023-09-18T15:46:16;27.20;95.00